Time;durP1;ratioP1;P1;durP2;ratioP2;P2;SDS_P1;SDS_P2;PMS_P1;PMS_P2;Temp;Humidity;BMP_temperature;BMP_pressure;BME280_temperature;BME280_humidity;BME280_pressure;Samples;Min_cycle;Max_cycle;Signal;HPM_P1;HPM_P2
2023/05/18 00:00:14;;;;;;;15.10;8.10;;;;;;;14.37;97.77;99147.75;3132870;28;20103;-70
2023/05/18 00:01:46;;;;;;;15.27;8.05;;;;;;;14.37;97.78;99147.75;3131335;28;20052;-71
2023/05/18 00:03:18;;;;;;;16.98;8.85;;;;;;;14.38;97.90;99133.72;3132605;28;20506;-71
2023/05/18 00:04:49;;;;;;;15.27;8.55;;;;;;;14.40;97.90;99137.88;3132686;28;20053;-69
2023/05/18 00:06:21;;;;;;;17.02;8.73;;;;;;;14.31;97.71;99118.41;3136711;28;20173;-71
2023/05/18 00:07:52;;;;;;;15.32;8.93;;;;;;;14.39;97.77;99130.13;3132734;28;20480;-71
2023/05/18 00:09:26;;;;;;;15.20;8.40;;;;;;;14.39;97.90;99124.91;3132959;28;20126;-70
2023/05/18 00:10:58;;;;;;;16.42;8.30;;;;;;;14.34;97.77;99126.09;3132785;28;20045;-71
2023/05/18 00:12:30;;;;;;;13.48;8.85;;;;;;;14.40;97.88;99139.66;3132988;28;20049;-70
2023/05/18 00:14:02;;;;;;;18.90;8.80;;;;;;;14.41;97.81;99134.31;3132815;28;20102;-69
2023/05/18 00:15:34;;;;;;;15.98;8.82;;;;;;;14.43;97.88;99135.03;3131561;28;20053;-70
2023/05/18 00:17:05;;;;;;;16.33;9.55;;;;;;;14.41;97.73;99129.09;3132955;28;20115;-70
2023/05/18 00:18:38;;;;;;;17.73;10.00;;;;;;;14.43;97.79;99132.41;3128368;28;20130;-70
2023/05/18 00:20:11;;;;;;;18.17;10.30;;;;;;;14.32;97.72;99109.63;3127782;28;20422;-69
2023/05/18 00:21:45;;;;;;;17.23;9.27;;;;;;;14.41;97.74;99128.25;3127491;28;20056;-70
2023/05/18 00:23:15;;;;;;;15.63;9.60;;;;;;;14.44;97.81;99130.66;3127601;28;20057;-70
2023/05/18 00:24:49;;;;;;;17.52;8.32;;;;;;;14.46;97.77;99136.59;3127381;28;21029;-70
2023/05/18 00:26:21;;;;;;;15.52;8.80;;;;;;;14.46;97.65;99131.38;3127406;28;20540;-72
2023/05/18 00:27:52;;;;;;;12.85;9.00;;;;;;;14.46;97.64;99131.38;3127582;28;20140;-71
2023/05/18 00:29:24;;;;;;;13.45;9.55;;;;;;;14.46;97.41;99126.94;3127496;28;20049;-71
2023/05/18 00:30:55;;;;;;;18.13;9.00;;;;;;;14.45;97.18;99127.91;3126982;28;20099;-71
2023/05/18 00:32:27;;;;;;;16.65;9.70;;;;;;;14.45;97.22;99135.78;3127330;28;20080;-71
2023/05/18 00:33:58;;;;;;;16.40;8.38;;;;;;;14.44;97.04;99123.63;3127448;28;20536;-72
2023/05/18 00:35:30;;;;;;;14.85;8.48;;;;;;;14.37;96.87;99117.13;3127191;28;20084;-71
2023/05/18 00:37:02;;;;;;;15.73;9.68;;;;;;;14.43;96.78;99123.72;3126602;28;20056;-71
2023/05/18 00:38:34;;;;;;;14.45;9.15;;;;;;;14.42;96.68;99120.28;3127391;28;20059;-71
2023/05/18 00:40:09;;;;;;;13.02;8.95;;;;;;;14.30;96.66;99108.91;3127317;28;20064;-71
2023/05/18 00:41:40;;;;;;;15.10;9.93;;;;;;;14.25;96.47;99100.53;3127586;28;20465;-72
2023/05/18 00:43:12;;;;;;;19.05;10.93;;;;;;;14.34;96.52;99115.59;3127265;28;20084;-72
2023/05/18 00:44:43;;;;;;;20.17;9.68;;;;;;;14.32;96.65;99120.09;3127385;28;20056;-72
2023/05/18 00:46:15;;;;;;;17.17;10.95;;;;;;;14.34;96.73;99118.22;3126939;28;20544;-71
2023/05/18 00:47:47;;;;;;;18.77;11.48;;;;;;;14.32;96.79;99121.88;3131596;28;20053;-71
2023/05/18 00:49:19;;;;;;;17.52;11.00;;;;;;;14.31;96.71;99121.03;3118090;28;20441;-71
2023/05/18 00:50:51;;;;;;;17.88;10.00;;;;;;;14.26;96.85;99112.69;3127209;28;20103;-72
2023/05/18 00:52:23;;;;;;;19.23;10.52;;;;;;;14.30;96.58;99122.00;3127409;28;20143;-72
2023/05/18 00:53:56;;;;;;;20.25;10.90;;;;;;;14.30;96.50;99118.53;3127566;28;20072;-72
2023/05/18 00:55:29;;;;;;;20.50;12.10;;;;;;;14.28;96.55;99123.03;3127340;28;20418;-72
2023/05/18 00:57:02;;;;;;;;;;;;;;;14.18;96.59;99128.09;3127777;28;20059;-72
2023/05/18 00:58:34;;;;;;;21.90;12.15;;;;;;;14.16;96.76;99122.13;3126829;28;19925;-72
2023/05/18 01:00:09;;;;;;;23.75;12.73;;;;;;;14.17;96.79;99125.56;3127210;28;20111;-72
2023/05/18 01:01:45;;;;;;;22.00;12.35;;;;;;;14.16;96.80;99118.69;3127985;28;20254;-71
2023/05/18 01:03:20;;;;;;;18.90;11.38;;;;;;;14.15;96.78;99122.25;3132158;28;20105;-72
2023/05/18 01:04:52;;;;;;;17.88;11.68;;;;;;;14.13;96.76;99124.97;3127155;28;20049;-72
2023/05/18 01:06:25;;;;;;;21.27;11.93;;;;;;;14.12;96.58;99120.69;3127091;28;20052;-72
2023/05/18 01:07:57;;;;;;;18.45;10.25;;;;;;;14.10;96.55;99125.19;3127023;28;20114;-72
2023/05/18 01:09:29;;;;;;;22.65;10.93;;;;;;;14.10;96.60;99130.41;3127167;28;20053;-72
2023/05/18 01:11:11;;;;;;;18.70;11.05;;;;;;;14.06;96.40;99127.19;3126942;28;20049;-72
2023/05/18 01:12:49;;;;;;;20.25;12.32;;;;;;;13.64;96.56;99060.38;3126997;28;20053;-73
2023/05/18 01:14:26;;;;;;;22.42;12.20;;;;;;;14.06;96.36;99134.19;3126676;28;20510;-72
2023/05/18 01:16:02;;;;;;;24.73;13.13;;;;;;;14.03;96.35;99123.94;3126733;28;20080;-72
2023/05/18 01:17:42;;;;;;;24.00;12.85;;;;;;;14.05;96.29;99135.13;3127278;28;20544;-71
2023/05/18 01:19:37;;;;;;;22.55;12.75;;;;;;;13.95;95.97;99126.25;3127151;28;20045;-71
2023/05/18 01:21:18;;;;;;;24.75;12.52;;;;;;;13.99;96.22;99135.56;3127215;28;20163;-71
2023/05/18 01:23:08;;;;;;;22.77;13.65;;;;;;;13.96;96.20;99144.50;3127257;28;20117;-71
2023/05/18 01:24:45;;;;;;;25.08;14.57;;;;;;;13.64;96.31;99092.59;3128239;28;20480;-71
2023/05/18 01:26:24;;;;;;;29.48;15.00;;;;;;;13.93;96.30;99133.38;3126996;28;20076;-71
2023/05/18 01:27:58;;;;;;;27.58;14.82;;;;;;;13.94;96.29;99132.44;3127105;28;20481;-71
2023/05/18 01:29:31;;;;;;;29.42;15.60;;;;;;;13.89;96.44;99124.91;3127362;28;20052;-71
2023/05/18 01:31:03;;;;;;;37.55;17.73;;;;;;;13.92;96.54;99136.94;3129098;28;20044;-71
2023/05/18 01:32:39;;;;;;;43.30;18.83;;;;;;;13.91;96.68;99138.72;3127217;28;20061;-71
2023/05/18 01:34:11;;;;;;;43.20;19.73;;;;;;;13.88;96.72;99139.78;3126750;28;20509;-72
2023/05/18 01:35:46;;;;;;;45.92;19.70;;;;;;;13.86;96.81;99141.66;3127191;28;20052;-71
2023/05/18 01:37:18;;;;;;;46.15;20.67;;;;;;;13.82;96.94;99140.19;3126870;28;20183;-71
2023/05/18 01:38:51;;;;;;;50.95;21.23;;;;;;;13.80;97.42;99139.47;3126931;28;20060;-71
2023/05/18 01:40:24;;;;;;;52.45;21.80;;;;;;;13.78;97.51;99141.38;3126693;28;20057;-71
2023/05/18 01:42:03;;;;;;;57.33;21.35;;;;;;;13.80;97.63;99146.47;3126929;28;20083;-71
2023/05/18 01:43:36;;;;;;;49.35;20.83;;;;;;;13.75;97.91;99133.69;3127128;28;20056;-70
2023/05/18 01:45:13;;;;;;;;;;;;;;;13.71;98.13;99141.88;3135094;28;20136;-70
2023/05/18 01:46:53;;;;;;;44.35;21.05;;;;;;;13.73;98.24;99135.59;3126677;28;19925;-70
2023/05/18 01:48:25;;;;;;;45.50;20.95;;;;;;;13.73;98.51;99138.22;3128331;28;20818;-70
2023/05/18 01:50:02;;;;;;;46.50;20.05;;;;;;;13.75;98.52;99144.16;3129261;28;20055;-70
2023/05/18 01:51:37;;;;;;;51.72;20.38;;;;;;;13.38;98.52;99081.28;3129440;28;20052;-71
2023/05/18 01:53:14;;;;;;;49.88;21.02;;;;;;;13.78;98.62;99150.97;3129345;28;20133;-71
2023/05/18 01:54:51;;;;;;;47.13;20.02;;;;;;;13.42;98.69;99092.38;3129651;28;20040;-73
2023/05/18 01:56:24;;;;;;;44.33;20.98;;;;;;;13.81;98.91;99156.84;3128880;28;20110;-71
2023/05/18 01:58:00;;;;;;;47.20;21.40;;;;;;;13.82;98.77;99148.06;3129718;28;20565;-71
2023/05/18 01:59:33;;;;;;;52.38;22.27;;;;;;;13.83;99.01;99154.94;3129509;28;20069;-70
2023/05/18 02:01:04;;;;;;;60.45;22.42;;;;;;;13.82;99.14;99153.28;3126821;28;20053;-70
2023/05/18 02:02:37;;;;;;;61.65;21.77;;;;;;;13.84;99.13;99158.41;3129300;28;20526;-70
2023/05/18 02:04:09;;;;;;;49.67;22.83;;;;;;;13.75;99.22;99140.72;3129227;28;20053;-67
2023/05/18 02:05:40;;;;;;;51.47;22.13;;;;;;;13.85;99.24;99150.47;3117394;28;20110;-72
2023/05/18 02:07:12;;;;;;;62.53;22.23;;;;;;;13.88;99.34;99159.88;3128675;28;20060;-71
2023/05/18 02:08:43;;;;;;;55.35;21.65;;;;;;;13.90;99.51;99163.22;3129447;28;20113;-69
2023/05/18 02:10:15;;;;;;;47.83;22.15;;;;;;;13.92;99.54;99163.13;3128915;28;20599;-69
2023/05/18 02:11:46;;;;;;;55.58;21.33;;;;;;;13.88;99.57;99160.72;3130276;28;20084;-70
2023/05/18 02:13:20;;;;;;;52.60;21.13;;;;;;;13.93;99.46;99165.66;3132130;28;20045;-69
2023/05/18 02:14:51;;;;;;;;;;;;;;;13.88;99.48;99172.97;3123010;28;20062;-69
2023/05/18 02:16:22;;;;;;;55.92;19.83;;;;;;;13.88;99.56;99179.03;3124650;28;20559;-69
2023/05/18 02:17:56;;;;;;;44.88;20.05;;;;;;;13.91;99.53;99187.63;3130729;28;20048;-69
2023/05/18 02:19:29;;;;;;;56.95;20.42;;;;;;;13.91;99.64;99192.88;3134413;28;20083;-70
2023/05/18 02:21:01;;;;;;;47.63;19.23;;;;;;;13.86;99.62;99187.94;3133752;28;20049;-69
2023/05/18 02:22:32;;;;;;;57.63;20.42;;;;;;;13.87;99.80;99181.75;3134133;28;20152;-69
2023/05/18 02:24:05;;;;;;;48.80;19.13;;;;;;;13.86;100.00;99185.31;3134404;28;20049;-69
2023/05/18 02:25:36;;;;;;;37.25;18.85;;;;;;;13.88;100.00;99189.50;3134071;28;20488;-69
2023/05/18 02:27:08;;;;;;;37.10;18.63;;;;;;;13.89;100.00;99191.16;3142185;28;21190;-69
2023/05/18 02:28:41;;;;;;;38.15;19.75;;;;;;;13.91;100.00;99183.22;3134250;28;20441;-69
2023/05/18 02:30:14;;;;;;;38.92;18.98;;;;;;;13.92;100.00;99194.53;3133884;28;20056;-69
2023/05/18 02:31:44;;;;;;;40.63;18.27;;;;;;;13.94;99.78;99197.88;3127387;28;20057;-69
2023/05/18 02:33:18;;;;;;;38.58;18.92;;;;;;;13.94;99.87;99190.88;3133932;28;20056;-69
2023/05/18 02:34:52;;;;;;;40.65;19.35;;;;;;;13.93;99.97;99190.97;3134068;28;20522;-69
2023/05/18 02:36:24;;;;;;;43.80;19.65;;;;;;;13.93;99.91;99188.34;3121526;28;20509;-69
2023/05/18 02:37:57;;;;;;;49.60;20.13;;;;;;;13.96;100.00;99196.84;3133634;28;20053;-70
2023/05/18 02:39:28;;;;;;;44.22;20.55;;;;;;;13.96;100.00;99199.47;3133931;28;20052;-69
2023/05/18 02:41:00;;;;;;;48.42;21.25;;;;;;;13.91;100.00;99188.47;3143932;28;20060;-69
2023/05/18 02:42:32;;;;;;;49.20;22.73;;;;;;;13.84;100.00;99174.97;3134960;28;20099;-69
2023/05/18 02:44:06;;;;;;;50.55;22.45;;;;;;;13.98;100.00;99194.94;3134065;28;20442;-69
2023/05/18 02:45:37;;;;;;;55.92;23.17;;;;;;;13.98;99.85;99205.41;3133686;28;20083;-68
2023/05/18 02:47:08;;;;;;;48.17;22.48;;;;;;;13.96;99.90;99204.69;3134138;28;20110;-68
2023/05/18 02:48:44;;;;;;;56.97;24.30;;;;;;;13.93;99.59;99202.28;3133739;28;20129;-69
2023/05/18 02:50:15;;;;;;;52.35;22.50;;;;;;;13.91;99.47;99205.94;3134076;28;20053;-68
2023/05/18 02:51:47;;;;;;;97.93;24.67;;;;;;;13.78;99.18;99190.22;3133892;28;20549;-68
2023/05/18 02:53:18;;;;;;;60.47;23.88;;;;;;;13.82;99.22;99200.41;3133827;28;20068;-68
2023/05/18 02:54:53;;;;;;;64.03;26.05;;;;;;;13.79;99.23;99199.78;3137412;28;20041;-68
2023/05/18 02:56:24;;;;;;;60.53;25.42;;;;;;;13.81;99.25;99205.72;3133742;28;20493;-68
2023/05/18 02:57:56;;;;;;;73.10;21.13;;;;;;;13.79;99.43;99205.00;3133718;28;20053;-68
2023/05/18 02:59:30;;;;;;;69.90;20.97;;;;;;;13.75;99.05;99206.97;3132970;28;20092;-69
2023/05/18 03:01:02;;;;;;;;;;;;;;;13.64;99.23;99209.50;3131792;28;20049;-68
2023/05/18 03:02:37;;;;;;;48.53;20.42;;;;;;;13.63;99.38;99208.63;3133861;28;19924;-68
2023/05/18 03:04:09;;;;;;;57.40;19.80;;;;;;;13.64;99.34;99204.25;3124255;28;20053;-68
2023/05/18 03:05:40;;;;;;;47.60;19.92;;;;;;;13.67;99.24;99211.91;3133718;28;20049;-69
2023/05/18 03:07:12;;;;;;;51.80;20.88;;;;;;;13.64;99.53;99202.47;3133330;28;20045;-68
2023/05/18 03:08:43;;;;;;;58.70;19.35;;;;;;;13.68;99.49;99210.94;3140332;28;20075;-67
2023/05/18 03:10:15;;;;;;;76.72;19.48;;;;;;;13.63;99.39;99211.25;3134943;28;20423;-67
2023/05/18 03:11:47;;;;;;;66.80;19.48;;;;;;;13.67;99.42;99217.13;3134173;28;20132;-66
2023/05/18 03:13:19;;;;;;;67.18;21.05;;;;;;;13.67;99.66;99219.75;3133218;28;20094;-66
2023/05/18 03:14:52;;;;;;;61.65;20.17;;;;;;;13.65;99.43;99211.16;3126795;28;20060;-66
2023/05/18 03:16:27;;;;;;;95.60;21.45;;;;;;;13.69;99.66;99220.47;3128656;28;20049;-66
2023/05/18 03:17:59;;;;;;;67.57;21.27;;;;;;;13.68;99.58;99224.03;3134108;28;20064;-66
2023/05/18 03:19:31;;;;;;;70.18;22.45;;;;;;;13.68;99.35;99229.28;3133606;28;20107;-67
2023/05/18 03:21:02;;;;;;;90.82;20.52;;;;;;;13.65;99.41;99232.94;3133542;28;20045;-67
2023/05/18 03:22:34;;;;;;;60.80;20.83;;;;;;;13.62;99.38;99227.91;3137462;28;20052;-67
2023/05/18 03:24:07;;;;;;;54.97;21.35;;;;;;;13.63;99.48;99232.19;3141746;28;20067;-67
2023/05/18 03:25:38;;;;;;;52.97;21.40;;;;;;;13.61;99.47;99234.09;3133222;28;20126;-68
2023/05/18 03:27:11;;;;;;;59.90;22.42;;;;;;;13.65;99.41;99240.78;3133390;28;20362;-67
2023/05/18 03:28:43;;;;;;;64.10;22.08;;;;;;;13.66;99.65;99246.84;3133084;28;20053;-67
2023/05/18 03:30:15;;;;;;;64.57;26.27;;;;;;;13.63;99.81;99240.03;3133023;28;20045;-67
2023/05/18 03:31:47;;;;;;;58.08;25.33;;;;;;;13.65;99.68;99240.78;3133224;28;20053;-67
2023/05/18 03:33:19;;;;;;;60.33;25.63;;;;;;;13.70;99.79;99248.34;3133503;28;20060;-67
2023/05/18 03:34:51;;;;;;;71.78;27.15;;;;;;;13.62;100.00;99233.13;3133420;28;20053;-66
2023/05/18 03:36:24;;;;;;;58.28;23.80;;;;;;;13.71;99.88;99244.75;3136152;28;20052;-66
2023/05/18 03:37:56;;;;;;;50.28;21.40;;;;;;;13.59;99.59;99227.28;3133925;28;20514;-66
2023/05/18 03:39:28;;;;;;;66.43;22.95;;;;;;;13.57;99.79;99226.53;3133563;28;20526;-67
2023/05/18 03:41:00;;;;;;;52.00;21.95;;;;;;;13.64;99.81;99236.50;3133087;28;20065;-67
2023/05/18 03:42:31;;;;;;;50.75;19.90;;;;;;;13.60;99.76;99237.63;3133298;28;20053;-68
2023/05/18 03:44:03;;;;;;;48.13;20.13;;;;;;;13.62;99.47;99243.59;3133190;28;20075;-68
2023/05/18 03:45:35;;;;;;;45.72;22.27;;;;;;;13.63;99.81;99242.66;3133008;28;20052;-68
2023/05/18 03:47:07;;;;;;;53.47;22.58;;;;;;;13.63;99.83;99242.66;3129023;28;20481;-67
2023/05/18 03:48:38;;;;;;;54.88;23.67;;;;;;;13.63;99.94;99247.03;3127225;28;20057;-69
2023/05/18 03:50:10;;;;;;;58.25;25.92;;;;;;;13.64;99.96;99246.13;3133706;28;20102;-68
2023/05/18 03:51:42;;;;;;;62.10;28.77;;;;;;;13.60;100.00;99248.09;3140605;28;20048;-68
2023/05/18 03:53:13;;;;;;;60.50;28.35;;;;;;;13.62;100.00;99248.84;3130822;28;20503;-70
2023/05/18 03:54:45;;;;;;;59.92;27.80;;;;;;;13.67;100.00;99247.72;3124092;28;20134;-68
2023/05/18 03:56:17;;;;;;;54.05;25.55;;;;;;;13.67;100.00;99252.94;3132889;28;20060;-68
2023/05/18 03:57:48;;;;;;;51.92;24.55;;;;;;;13.63;100.00;99249.66;3133051;28;20456;-67
2023/05/18 03:59:20;;;;;;;53.92;24.40;;;;;;;13.59;100.00;99242.97;3131141;28;20099;-68
2023/05/18 04:00:54;;;;;;;57.60;23.63;;;;;;;13.70;100.00;99258.78;3127311;28;20049;-68
2023/05/18 04:02:24;;;;;;;45.28;20.67;;;;;;;13.70;100.00;99256.19;3133008;28;20443;-67
2023/05/18 04:03:56;;;;;;;43.97;20.83;;;;;;;13.63;100.00;99242.66;3132336;28;20071;-69
2023/05/18 04:05:28;;;;;;;45.60;20.10;;;;;;;13.69;100.00;99246.63;3143718;28;20604;-68
2023/05/18 04:07:04;;;;;;;42.22;20.48;;;;;;;13.69;100.00;99249.25;3133294;28;20055;-68
2023/05/18 04:08:35;;;;;;;49.38;20.50;;;;;;;13.75;100.00;99261.09;3132934;28;20076;-70
2023/05/18 04:10:08;;;;;;;41.42;20.63;;;;;;;13.62;100.00;99235.75;3132657;28;20049;-72
2023/05/18 04:11:40;;;;;;;39.25;19.65;;;;;;;13.54;100.00;99221.50;3133096;28;20506;-71
2023/05/18 04:13:12;;;;;;;41.88;18.75;;;;;;;13.38;100.00;99196.38;3120776;28;20056;-68
2023/05/18 04:14:48;;;;;;;47.88;19.88;;;;;;;13.76;100.00;99263.63;3127163;28;20438;-70
2023/05/18 04:16:21;;;;;;;43.22;20.58;;;;;;;13.79;100.00;99263.41;3131878;28;20667;-70
2023/05/18 04:17:53;;;;;;;45.25;20.92;;;;;;;13.76;100.00;99263.63;3133100;28;20477;-68
2023/05/18 04:19:24;;;;;;;44.35;20.30;;;;;;;13.81;100.00;99269.41;3142316;28;20049;-68
2023/05/18 04:20:55;;;;;;;45.13;20.80;;;;;;;13.74;100.00;99262.03;3135354;28;20115;-71
2023/05/18 04:22:29;;;;;;;40.03;20.67;;;;;;;13.80;100.00;99265.06;3132739;28;20045;-70
2023/05/18 04:24:03;;;;;;;52.13;21.33;;;;;;;13.86;100.00;99275.13;3133221;28;20052;-73
2023/05/18 04:25:38;;;;;;;41.88;20.65;;;;;;;13.88;100.00;99280.28;3132261;28;20053;-71
2023/05/18 04:27:10;;;;;;;42.40;20.63;;;;;;;13.79;100.00;99268.66;3133025;28;20053;-69
2023/05/18 04:28:43;;;;;;;56.40;27.83;;;;;;;13.88;100.00;99281.13;3132405;28;20053;-71
2023/05/18 04:30:13;;;;;;;51.22;26.98;;;;;;;13.89;100.00;99281.94;3132503;28;20568;-73
2023/05/18 04:31:47;;;;;;;48.92;25.92;;;;;;;13.80;100.00;99261.63;3132841;28;20069;-72
2023/05/18 04:33:19;;;;;;;42.55;22.10;;;;;;;13.91;100.00;99282.69;3138183;28;20049;-73
2023/05/18 04:34:51;;;;;;;39.38;19.85;;;;;;;13.90;100.00;99281.00;3132583;28;20057;-69
2023/05/18 04:36:24;;;;;;;43.83;20.10;;;;;;;13.91;100.00;99282.69;3132585;28;20053;-69
2023/05/18 04:37:56;;;;;;;;;;;;;;;13.86;100.00;99284.78;3133057;28;20075;-70
2023/05/18 04:39:28;;;;;;;39.35;19.90;;;;;;;13.86;100.00;99279.53;3133047;28;20015;-67
2023/05/18 04:41:04;;;;;;;43.22;19.88;;;;;;;13.90;100.00;99286.22;3132347;28;20185;-67
2023/05/18 04:42:36;;;;;;;72.45;38.22;;;;;;;13.92;100.00;99286.13;3131780;28;20053;-76
2023/05/18 04:44:08;;;;;;;46.83;23.92;;;;;;;13.93;100.00;99288.69;3132290;28;20411;-70
2023/05/18 04:45:39;;;;;;;54.03;27.38;;;;;;;13.88;100.00;99275.88;3132270;28;20541;-73
2023/05/18 04:47:12;;;;;;;43.92;21.83;;;;;;;13.97;100.00;99291.91;3138946;28;20078;-75
2023/05/18 04:48:48;;;;;;;44.47;22.13;;;;;;;13.99;100.00;99295.25;3129881;28;20049;-75
2023/05/18 04:50:22;;;;;;;40.45;20.33;;;;;;;14.03;100.00;99291.50;3131959;28;20067;-69
2023/05/18 04:51:55;;;;;;;42.63;21.10;;;;;;;14.01;100.00;99280.28;3131985;28;20044;-71
2023/05/18 04:53:32;;;;;;;67.65;35.28;;;;;;;14.04;100.00;99294.00;3132039;28;20081;-75
2023/05/18 04:55:04;;;;;;;45.38;22.38;;;;;;;13.94;100.00;99277.25;3132175;28;20049;-77
2023/05/18 04:56:36;;;;;;;46.35;21.45;;;;;;;14.08;100.00;99295.50;3124892;28;20052;-69
2023/05/18 04:58:09;;;;;;;40.60;20.45;;;;;;;14.10;100.00;99300.59;3132264;28;20052;-73
2023/05/18 04:59:41;;;;;;;35.97;19.08;;;;;;;14.02;100.00;99285.44;3132045;28;20052;-67
2023/05/18 05:01:14;;;;;;;39.88;18.00;;;;;;;14.13;100.00;99303.00;3127352;28;20487;-68
2023/05/18 05:02:47;;;;;;;39.33;18.52;;;;;;;14.17;100.00;99306.25;3132194;28;20139;-68
2023/05/18 05:04:21;;;;;;;36.17;18.45;;;;;;;14.18;100.00;99300.94;3132844;28;20045;-69
2023/05/18 05:05:52;;;;;;;36.33;18.35;;;;;;;14.21;100.00;99305.13;3132090;28;20418;-68
2023/05/18 05:07:24;;;;;;;31.27;17.33;;;;;;;14.23;100.00;99305.88;3132298;28;20479;-68
2023/05/18 05:08:56;;;;;;;32.92;15.73;;;;;;;14.23;100.00;99306.69;3132191;28;20289;-67
2023/05/18 05:10:28;;;;;;;36.83;17.30;;;;;;;14.23;100.00;99306.69;3126719;28;20639;-70
2023/05/18 05:11:59;;;;;;;36.15;16.98;;;;;;;14.17;100.00;99294.03;3127788;28;20052;-69
2023/05/18 05:13:31;;;;;;;33.63;17.92;;;;;;;14.25;100.00;99302.19;3132923;28;20044;-70
2023/05/18 05:15:04;;;;;;;32.97;17.73;;;;;;;14.27;100.00;99305.53;3132091;28;20136;-68
2023/05/18 05:16:36;;;;;;;37.53;19.17;;;;;;;14.30;99.76;99307.94;3131620;28;20057;-68
2023/05/18 05:18:10;;;;;;;40.85;19.67;;;;;;;14.30;99.87;99304.50;3132419;28;20133;-70
2023/05/18 05:19:45;;;;;;;35.70;18.55;;;;;;;14.29;99.91;99305.44;3132185;28;20049;-71
2023/05/18 05:21:17;;;;;;;35.53;18.25;;;;;;;14.29;100.00;99305.44;3131302;28;20045;-69
2023/05/18 05:22:49;;;;;;;43.53;20.42;;;;;;;14.26;100.00;99308.28;3128065;28;20501;-67
2023/05/18 05:24:21;;;;;;;39.38;18.35;;;;;;;14.30;100.00;99312.34;3134970;28;20514;-68
2023/05/18 05:25:52;;;;;;;38.28;19.67;;;;;;;14.31;100.00;99314.84;3134806;28;20045;-69
2023/05/18 05:27:25;;;;;;;36.70;18.52;;;;;;;14.33;100.00;99315.59;3134918;28;20045;-68
2023/05/18 05:28:56;;;;;;;37.38;17.80;;;;;;;14.36;100.00;99321.56;3138149;28;20162;-70
2023/05/18 05:30:29;;;;;;;41.60;18.08;;;;;;;14.26;100.00;99301.25;3141586;28;20599;-69
2023/05/18 05:32:00;;;;;;;35.42;18.95;;;;;;;14.41;100.00;99319.50;3134917;28;20518;-70
2023/05/18 05:33:33;;;;;;;34.30;17.95;;;;;;;14.42;100.00;99321.97;3134716;28;20084;-71
2023/05/18 05:35:05;;;;;;;33.10;18.45;;;;;;;14.44;100.00;99327.13;3134629;28;20150;-71
2023/05/18 05:36:38;;;;;;;34.05;17.58;;;;;;;14.42;100.00;99321.16;3127939;28;20129;-72
2023/05/18 05:38:10;;;;;;;37.53;17.67;;;;;;;14.42;100.00;99332.47;3131798;28;20617;-68
2023/05/18 05:39:41;;;;;;;37.47;18.75;;;;;;;14.42;100.00;99337.69;3124038;28;20433;-68
2023/05/18 05:41:13;;;;;;;40.70;18.90;;;;;;;14.38;100.00;99330.19;3132266;28;20103;-69
2023/05/18 05:42:45;;;;;;;32.53;16.70;;;;;;;14.37;100.00;99333.72;3129917;28;20053;-69
2023/05/18 05:44:17;;;;;;;34.92;17.85;;;;;;;14.36;100.00;99330.25;3130509;28;20053;-68
2023/05/18 05:45:49;;;;;;;35.92;16.63;;;;;;;14.36;100.00;99337.28;3126940;28;20060;-69
2023/05/18 05:47:21;;;;;;;32.05;17.50;;;;;;;14.28;100.00;99320.28;3128665;28;20469;-69
2023/05/18 05:48:55;;;;;;;38.20;18.60;;;;;;;14.39;100.00;99343.16;3129210;28;20053;-67
2023/05/18 05:50:27;;;;;;;31.20;17.98;;;;;;;14.40;100.00;99336.13;3127778;28;20056;-69
2023/05/18 05:51:59;;;;;;;33.97;17.65;;;;;;;14.39;99.88;99342.31;3127599;28;20510;-69
2023/05/18 05:53:31;;;;;;;33.60;17.63;;;;;;;14.40;99.89;99344.81;3125353;28;20061;-68
2023/05/18 05:55:04;;;;;;;33.95;17.65;;;;;;;14.41;99.85;99353.53;3128872;28;20053;-69
2023/05/18 05:56:40;;;;;;;37.00;17.40;;;;;;;14.40;99.94;99350.06;3126666;28;20515;-67
2023/05/18 05:58:12;;;;;;;36.50;18.35;;;;;;;14.38;100.00;99354.59;3123858;28;20056;-68
2023/05/18 05:59:44;;;;;;;35.47;18.90;;;;;;;14.42;99.94;99357.81;3130735;28;20060;-68
2023/05/18 06:01:16;;;;;;;55.40;20.67;;;;;;;14.40;99.84;99368.41;3126992;28;20142;-68
2023/05/18 06:02:48;;;;;;;40.15;19.92;;;;;;;14.39;99.72;99360.66;3129423;28;20053;-68
2023/05/18 06:04:22;;;;;;;39.00;19.35;;;;;;;14.37;99.73;99363.38;3122257;28;20150;-67
2023/05/18 06:05:52;;;;;;;;;;;;;;;14.30;99.63;99360.34;3125596;28;20451;-70
2023/05/18 06:07:24;;;;;;;35.33;17.70;;;;;;;14.29;99.90;99358.66;3122228;28;20119;-70
2023/05/18 06:08:56;;;;;;;37.95;18.85;;;;;;;14.32;99.73;99366.31;3128380;28;20053;-69
2023/05/18 06:10:28;;;;;;;37.25;19.20;;;;;;;14.33;99.86;99367.97;3124372;28;20068;-68
2023/05/18 06:12:00;;;;;;;36.55;20.00;;;;;;;14.28;99.92;99354.34;3126913;28;20053;-69
2023/05/18 06:13:32;;;;;;;33.00;17.83;;;;;;;14.38;100.00;99374.72;3129587;28;20159;-71
2023/05/18 06:15:04;;;;;;;37.53;18.63;;;;;;;14.40;100.00;99370.19;3129144;28;20102;-72
2023/05/18 06:16:37;;;;;;;35.97;19.90;;;;;;;14.43;100.00;99375.22;3124014;28;20045;-69
2023/05/18 06:18:09;;;;;;;38.60;20.80;;;;;;;14.43;99.92;99370.81;3126444;28;20045;-69
2023/05/18 06:19:42;;;;;;;39.03;20.87;;;;;;;14.45;100.00;99378.56;3131801;28;20152;-71
2023/05/18 06:21:15;;;;;;;;;;;;;;;14.40;100.00;99378.03;3129447;28;20316;-69
2023/05/18 06:22:47;;;;;;;34.20;18.83;;;;;;;14.39;100.00;99381.63;3123093;28;19920;-69
2023/05/18 06:24:19;;;;;;;36.88;19.08;;;;;;;14.32;99.96;99365.47;3128214;28;20128;-68
2023/05/18 06:25:50;;;;;;;39.13;20.08;;;;;;;14.44;100.00;99377.75;3131666;28;20048;-69
2023/05/18 06:27:23;;;;;;;37.25;20.05;;;;;;;14.46;100.00;99386.31;3129027;28;20577;-69
2023/05/18 06:28:55;;;;;;;40.97;21.67;;;;;;;14.28;100.00;99356.13;3123459;28;20057;-69
2023/05/18 06:30:27;;;;;;;45.30;23.83;;;;;;;14.49;100.00;99388.75;3129647;28;20122;-69
2023/05/18 06:31:58;;;;;;;49.42;24.00;;;;;;;14.49;99.98;99387.91;3122716;28;20050;-69
2023/05/18 06:33:31;;;;;;;49.00;22.98;;;;;;;14.38;100.00;99377.31;3129795;28;20060;-69
2023/05/18 06:35:06;;;;;;;44.47;22.50;;;;;;;14.47;99.92;99392.41;3123974;28;20068;-69
2023/05/18 06:36:38;;;;;;;44.30;23.13;;;;;;;14.46;99.92;99401.19;3129501;28;20065;-69
2023/05/18 06:38:10;;;;;;;50.00;22.75;;;;;;;14.46;99.80;99403.81;3132206;28;20048;-69
2023/05/18 06:39:42;;;;;;;45.55;23.52;;;;;;;14.44;99.79;99403.09;3127811;28;20499;-69
2023/05/18 06:41:14;;;;;;;41.72;21.52;;;;;;;14.41;99.68;99405.94;3128231;28;20135;-69
2023/05/18 06:42:46;;;;;;;54.53;22.23;;;;;;;14.39;99.81;99407.81;3126518;28;20445;-68
2023/05/18 06:44:18;;;;;;;46.45;21.38;;;;;;;14.32;99.89;99404.78;3129570;28;20063;-69
2023/05/18 06:45:50;;;;;;;45.70;20.98;;;;;;;14.36;99.97;99418.50;3128219;28;20516;-69
2023/05/18 06:47:22;;;;;;;44.15;20.70;;;;;;;14.36;99.99;99421.13;3126817;28;20060;-69
2023/05/18 06:48:55;;;;;;;45.70;21.02;;;;;;;14.33;99.92;99416.91;3126456;28;20055;-70
2023/05/18 06:50:29;;;;;;;53.00;23.60;;;;;;;14.36;100.00;99423.72;3126436;28;20053;-68
2023/05/18 06:52:01;;;;;;;44.17;19.50;;;;;;;14.33;100.00;99424.78;3123396;28;20319;-68
2023/05/18 06:53:33;;;;;;;45.72;20.20;;;;;;;14.04;100.00;99379.56;3126068;28;20132;-67
2023/05/18 06:55:06;;;;;;;44.75;20.95;;;;;;;14.32;100.00;99430.97;3130681;28;20514;-66
2023/05/18 06:56:38;;;;;;;52.80;23.60;;;;;;;14.30;100.00;99424.97;3131415;28;20049;-69
2023/05/18 06:58:10;;;;;;;57.00;26.60;;;;;;;14.28;100.00;99430.31;3124858;28;20086;-68
2023/05/18 06:59:42;;;;;;;48.67;21.77;;;;;;;14.29;100.00;99437.25;3124982;28;20053;-70
2023/05/18 07:01:14;;;;;;;55.42;23.63;;;;;;;14.25;100.00;99440.97;3127308;28;20053;-70
2023/05/18 07:02:46;;;;;;;51.20;23.25;;;;;;;14.25;100.00;99442.78;3126904;28;20419;-69
2023/05/18 07:04:19;;;;;;;53.80;21.13;;;;;;;14.21;100.00;99442.13;3127669;28;20491;-70
2023/05/18 07:05:52;;;;;;;55.27;22.40;;;;;;;14.22;100.00;99451.66;3124691;28;20081;-69